sensor_id;sensor_type;location;lat;lon;timestamp;temperature;humidity
75719;DHT22;64340;48.534;-3.036;2023-02-28T00:00:34;15.40;58.30
75719;DHT22;64340;48.534;-3.036;2023-02-28T00:03:00;15.40;58.10
75719;DHT22;64340;48.534;-3.036;2023-02-28T00:05:27;15.40;58.20
75719;DHT22;64340;48.534;-3.036;2023-02-28T00:07:54;15.30;58.10
75719;DHT22;64340;48.534;-3.036;2023-02-28T00:10:26;15.30;58.00
75719;DHT22;64340;48.534;-3.036;2023-02-28T00:12:54;15.30;58.00
75719;DHT22;64340;48.534;-3.036;2023-02-28T00:15:23;15.30;57.80
75719;DHT22;64340;48.534;-3.036;2023-02-28T00:17:49;15.20;57.40
75719;DHT22;64340;48.534;-3.036;2023-02-28T00:20:15;15.20;57.60
75719;DHT22;64340;48.534;-3.036;2023-02-28T00:22:47;15.20;57.60
75719;DHT22;64340;48.534;-3.036;2023-02-28T00:25:16;15.20;57.40
75719;DHT22;64340;48.534;-3.036;2023-02-28T00:27:42;15.10;57.30
75719;DHT22;64340;48.534;-3.036;2023-02-28T00:30:12;15.10;57.30
75719;DHT22;64340;48.534;-3.036;2023-02-28T00:32:38;15.00;57.10
75719;DHT22;64340;48.534;-3.036;2023-02-28T00:35:05;15.00;57.10
75719;DHT22;64340;48.534;-3.036;2023-02-28T00:37:31;15.00;57.20
75719;DHT22;64340;48.534;-3.036;2023-02-28T00:39:57;15.00;57.30
75719;DHT22;64340;48.534;-3.036;2023-02-28T00:42:24;15.00;57.40
75719;DHT22;64340;48.534;-3.036;2023-02-28T00:44:50;15.00;57.20
75719;DHT22;64340;48.534;-3.036;2023-02-28T00:47:16;15.00;57.20
75719;DHT22;64340;48.534;-3.036;2023-02-28T00:49:42;14.90;57.20
75719;DHT22;64340;48.534;-3.036;2023-02-28T00:52:07;14.90;57.00
75719;DHT22;64340;48.534;-3.036;2023-02-28T00:54:33;14.90;56.80
75719;DHT22;64340;48.534;-3.036;2023-02-28T00:56:59;14.90;56.90
75719;DHT22;64340;48.534;-3.036;2023-02-28T00:59:25;14.80;56.00
75719;DHT22;64340;48.534;-3.036;2023-02-28T01:01:51;14.80;56.50
75719;DHT22;64340;48.534;-3.036;2023-02-28T01:04:17;14.80;56.60
75719;DHT22;64340;48.534;-3.036;2023-02-28T01:06:43;14.80;56.40
75719;DHT22;64340;48.534;-3.036;2023-02-28T01:09:09;14.80;56.60
75719;DHT22;64340;48.534;-3.036;2023-02-28T01:11:35;14.70;56.20
75719;DHT22;64340;48.534;-3.036;2023-02-28T01:14:02;14.70;55.80
75719;DHT22;64340;48.534;-3.036;2023-02-28T01:16:29;14.70;54.80
75719;DHT22;64340;48.534;-3.036;2023-02-28T01:18:55;14.60;56.10
75719;DHT22;64340;48.534;-3.036;2023-02-28T01:21:22;14.60;56.00
75719;DHT22;64340;48.534;-3.036;2023-02-28T01:23:48;14.60;55.80
75719;DHT22;64340;48.534;-3.036;2023-02-28T01:26:18;14.60;55.50
75719;DHT22;64340;48.534;-3.036;2023-02-28T01:28:44;14.60;54.80
75719;DHT22;64340;48.534;-3.036;2023-02-28T01:31:10;14.60;54.60
75719;DHT22;64340;48.534;-3.036;2023-02-28T01:33:37;14.50;54.70
75719;DHT22;64340;48.534;-3.036;2023-02-28T01:36:09;14.50;54.90
75719;DHT22;64340;48.534;-3.036;2023-02-28T01:38:36;14.50;55.10
75719;DHT22;64340;48.534;-3.036;2023-02-28T01:41:02;14.50;54.10
75719;DHT22;64340;48.534;-3.036;2023-02-28T01:43:54;14.40;54.80
75719;DHT22;64340;48.534;-3.036;2023-02-28T01:46:18;14.40;54.60
75719;DHT22;64340;48.534;-3.036;2023-02-28T01:48:52;14.40;54.40
75719;DHT22;64340;48.534;-3.036;2023-02-28T01:51:22;14.40;53.70
75719;DHT22;64340;48.534;-3.036;2023-02-28T01:53:54;14.40;53.90
75719;DHT22;64340;48.534;-3.036;2023-02-28T01:56:24;14.40;54.00
75719;DHT22;64340;48.534;-3.036;2023-02-28T01:58:51;14.30;54.20
75719;DHT22;64340;48.534;-3.036;2023-02-28T02:01:19;14.30;54.30
75719;DHT22;64340;48.534;-3.036;2023-02-28T02:03:53;14.30;54.60
75719;DHT22;64340;48.534;-3.036;2023-02-28T02:06:25;14.30;55.50
75719;DHT22;64340;48.534;-3.036;2023-02-28T02:08:51;14.30;55.20
75719;DHT22;64340;48.534;-3.036;2023-02-28T02:11:19;14.20;54.70
75719;DHT22;64340;48.534;-3.036;2023-02-28T02:14:09;14.20;55.40
75719;DHT22;64340;48.534;-3.036;2023-02-28T02:36:51;14.10;53.70
75719;DHT22;64340;48.534;-3.036;2023-02-28T02:39:26;14.10;53.70
75719;DHT22;64340;48.534;-3.036;2023-02-28T02:41:56;14.00;53.90
75719;DHT22;64340;48.534;-3.036;2023-02-28T02:44:48;14.00;53.70
75719;DHT22;64340;48.534;-3.036;2023-02-28T02:47:20;14.00;54.20
75719;DHT22;64340;48.534;-3.036;2023-02-28T02:49:51;14.00;54.10
75719;DHT22;64340;48.534;-3.036;2023-02-28T02:52:22;14.00;53.70
75719;DHT22;64340;48.534;-3.036;2023-02-28T02:54:52;14.00;53.90
75719;DHT22;64340;48.534;-3.036;2023-02-28T02:57:36;13.90;54.00
75719;DHT22;64340;48.534;-3.036;2023-02-28T03:00:05;14.00;54.30
75719;DHT22;64340;48.534;-3.036;2023-02-28T03:02:35;13.90;54.40
75719;DHT22;64340;48.534;-3.036;2023-02-28T03:05:07;13.90;53.90
75719;DHT22;64340;48.534;-3.036;2023-02-28T03:07:34;13.90;53.70
75719;DHT22;64340;48.534;-3.036;2023-02-28T03:09:59;13.90;53.70
75719;DHT22;64340;48.534;-3.036;2023-02-28T03:12:41;13.90;53.70
75719;DHT22;64340;48.534;-3.036;2023-02-28T03:15:27;13.90;53.70
75719;DHT22;64340;48.534;-3.036;2023-02-28T03:18:08;13.90;53.40
75719;DHT22;64340;48.534;-3.036;2023-02-28T03:23:19;13.90;53.50
75719;DHT22;64340;48.534;-3.036;2023-02-28T03:26:11;13.80;53.30
75719;DHT22;64340;48.534;-3.036;2023-02-28T03:29:17;13.80;54.30
75719;DHT22;64340;48.534;-3.036;2023-02-28T03:32:24;13.80;53.90
75719;DHT22;64340;48.534;-3.036;2023-02-28T03:34:55;13.80;53.60
75719;DHT22;64340;48.534;-3.036;2023-02-28T03:37:24;13.70;53.40
75719;DHT22;64340;48.534;-3.036;2023-02-28T03:39:58;13.70;53.30
75719;DHT22;64340;48.534;-3.036;2023-02-28T03:42:28;13.70;53.50
75719;DHT22;64340;48.534;-3.036;2023-02-28T03:44:58;13.70;53.40
75719;DHT22;64340;48.534;-3.036;2023-02-28T03:47:29;13.70;53.30
75719;DHT22;64340;48.534;-3.036;2023-02-28T03:50:07;13.70;53.30
75719;DHT22;64340;48.534;-3.036;2023-02-28T03:52:41;13.70;53.30
75719;DHT22;64340;48.534;-3.036;2023-02-28T03:55:10;13.60;53.10
75719;DHT22;64340;48.534;-3.036;2023-02-28T03:58:01;13.60;53.10
75719;DHT22;64340;48.534;-3.036;2023-02-28T04:00:34;13.60;53.20
75719;DHT22;64340;48.534;-3.036;2023-02-28T04:03:01;13.60;53.00
75719;DHT22;64340;48.534;-3.036;2023-02-28T04:05:28;13.60;53.10
75719;DHT22;64340;48.534;-3.036;2023-02-28T04:07:59;13.60;52.90
75719;DHT22;64340;48.534;-3.036;2023-02-28T04:10:28;13.50;52.90
75719;DHT22;64340;48.534;-3.036;2023-02-28T04:12:54;13.50;53.10
75719;DHT22;64340;48.534;-3.036;2023-02-28T04:15:19;13.50;52.80
75719;DHT22;64340;48.534;-3.036;2023-02-28T04:17:48;13.50;53.10
75719;DHT22;64340;48.534;-3.036;2023-02-28T04:20:14;13.50;53.00
75719;DHT22;64340;48.534;-3.036;2023-02-28T04:22:39;13.50;53.20
75719;DHT22;64340;48.534;-3.036;2023-02-28T04:25:06;13.50;53.00
75719;DHT22;64340;48.534;-3.036;2023-02-28T04:27:31;13.50;52.90
75719;DHT22;64340;48.534;-3.036;2023-02-28T04:29:57;13.50;52.90
75719;DHT22;64340;48.534;-3.036;2023-02-28T04:32:23;13.50;52.90
75719;DHT22;64340;48.534;-3.036;2023-02-28T04:34:49;13.50;52.80
75719;DHT22;64340;48.534;-3.036;2023-02-28T04:37:14;13.40;52.80
75719;DHT22;64340;48.534;-3.036;2023-02-28T04:39:41;13.40;52.80
75719;DHT22;64340;48.534;-3.036;2023-02-28T04:42:07;13.40;52.90
75719;DHT22;64340;48.534;-3.036;2023-02-28T04:44:33;13.30;52.90
75719;DHT22;64340;48.534;-3.036;2023-02-28T04:46:59;13.30;52.80
75719;DHT22;64340;48.534;-3.036;2023-02-28T04:49:25;13.30;52.90
75719;DHT22;64340;48.534;-3.036;2023-02-28T04:51:51;13.30;53.10
75719;DHT22;64340;48.534;-3.036;2023-02-28T04:54:18;13.30;52.70
75719;DHT22;64340;48.534;-3.036;2023-02-28T04:56:44;13.30;52.80
75719;DHT22;64340;48.534;-3.036;2023-02-28T04:59:10;13.30;52.70
75719;DHT22;64340;48.534;-3.036;2023-02-28T05:01:35;13.30;52.80
75719;DHT22;64340;48.534;-3.036;2023-02-28T05:04:03;13.30;53.00
75719;DHT22;64340;48.534;-3.036;2023-02-28T05:06:32;13.30;53.00
75719;DHT22;64340;48.534;-3.036;2023-02-28T05:08:58;13.30;52.70
75719;DHT22;64340;48.534;-3.036;2023-02-28T05:11:29;13.30;52.70
75719;DHT22;64340;48.534;-3.036;2023-02-28T05:14:00;13.30;52.70
75719;DHT22;64340;48.534;-3.036;2023-02-28T05:16:26;13.20;52.80
75719;DHT22;64340;48.534;-3.036;2023-02-28T05:18:52;13.20;52.60
75719;DHT22;64340;48.534;-3.036;2023-02-28T05:21:34;13.20;53.00
75719;DHT22;64340;48.534;-3.036;2023-02-28T05:24:05;13.20;52.50
75719;DHT22;64340;48.534;-3.036;2023-02-28T05:26:35;13.20;52.70
75719;DHT22;64340;48.534;-3.036;2023-02-28T05:29:01;13.30;52.40
75719;DHT22;64340;48.534;-3.036;2023-02-28T05:31:27;13.30;52.40
75719;DHT22;64340;48.534;-3.036;2023-02-28T05:33:53;13.20;52.40
75719;DHT22;64340;48.534;-3.036;2023-02-28T05:36:19;13.20;52.50
75719;DHT22;64340;48.534;-3.036;2023-02-28T05:38:49;13.30;53.10
75719;DHT22;64340;48.534;-3.036;2023-02-28T05:41:16;13.30;52.70
75719;DHT22;64340;48.534;-3.036;2023-02-28T05:43:42;13.30;52.60
75719;DHT22;64340;48.534;-3.036;2023-02-28T05:46:09;13.30;52.80
75719;DHT22;64340;48.534;-3.036;2023-02-28T05:48:39;13.30;53.20
75719;DHT22;64340;48.534;-3.036;2023-02-28T05:51:06;13.20;53.70
75719;DHT22;64340;48.534;-3.036;2023-02-28T05:53:33;13.30;53.20
75719;DHT22;64340;48.534;-3.036;2023-02-28T05:55:59;13.20;53.20
75719;DHT22;64340;48.534;-3.036;2023-02-28T05:58:25;13.10;53.10
75719;DHT22;64340;48.534;-3.036;2023-02-28T06:00:56;13.20;54.30
75719;DHT22;64340;48.534;-3.036;2023-02-28T06:03:22;13.10;53.40
75719;DHT22;64340;48.534;-3.036;2023-02-28T06:05:48;13.10;53.20
75719;DHT22;64340;48.534;-3.036;2023-02-28T06:08:14;13.10;53.20
75719;DHT22;64340;48.534;-3.036;2023-02-28T06:10:40;13.10;53.10
75719;DHT22;64340;48.534;-3.036;2023-02-28T06:13:07;13.10;53.00
75719;DHT22;64340;48.534;-3.036;2023-02-28T06:15:33;13.10;52.90
75719;DHT22;64340;48.534;-3.036;2023-02-28T06:18:04;13.10;53.00
75719;DHT22;64340;48.534;-3.036;2023-02-28T06:20:32;13.10;53.10
75719;DHT22;64340;48.534;-3.036;2023-02-28T06:22:58;13.10;53.20
75719;DHT22;64340;48.534;-3.036;2023-02-28T06:25:25;13.10;53.00
75719;DHT22;64340;48.534;-3.036;2023-02-28T06:27:51;13.10;53.20
75719;DHT22;64340;48.534;-3.036;2023-02-28T06:30:17;13.10;52.80
75719;DHT22;64340;48.534;-3.036;2023-02-28T06:32:43;13.10;53.80
75719;DHT22;64340;48.534;-3.036;2023-02-28T06:35:09;13.10;53.70
75719;DHT22;64340;48.534;-3.036;2023-02-28T06:37:35;13.10;55.00
75719;DHT22;64340;48.534;-3.036;2023-02-28T06:40:02;13.10;56.10
75719;DHT22;64340;48.534;-3.036;2023-02-28T06:42:28;13.10;54.50
75719;DHT22;64340;48.534;-3.036;2023-02-28T06:44:56;13.10;55.30
75719;DHT22;64340;48.534;-3.036;2023-02-28T06:47:22;13.10;55.00
75719;DHT22;64340;48.534;-3.036;2023-02-28T06:49:48;13.00;56.70
75719;DHT22;64340;48.534;-3.036;2023-02-28T06:52:14;13.00;56.90
75719;DHT22;64340;48.534;-3.036;2023-02-28T06:54:40;13.00;57.30
75719;DHT22;64340;48.534;-3.036;2023-02-28T06:57:06;13.00;55.70
75719;DHT22;64340;48.534;-3.036;2023-02-28T06:59:32;12.90;55.70
75719;DHT22;64340;48.534;-3.036;2023-02-28T07:01:58;12.90;56.50
75719;DHT22;64340;48.534;-3.036;2023-02-28T07:04:24;12.90;55.90
75719;DHT22;64340;48.534;-3.036;2023-02-28T07:06:50;12.90;55.50
75719;DHT22;64340;48.534;-3.036;2023-02-28T07:09:15;12.90;55.80
75719;DHT22;64340;48.534;-3.036;2023-02-28T07:11:41;12.90;55.50
75719;DHT22;64340;48.534;-3.036;2023-02-28T07:14:08;12.80;55.40
75719;DHT22;64340;48.534;-3.036;2023-02-28T07:16:35;12.80;55.20
75719;DHT22;64340;48.534;-3.036;2023-02-28T07:19:01;12.80;55.00
75719;DHT22;64340;48.534;-3.036;2023-02-28T07:21:27;12.80;55.00
75719;DHT22;64340;48.534;-3.036;2023-02-28T07:23:53;12.80;55.20
75719;DHT22;64340;48.534;-3.036;2023-02-28T07:26:20;12.80;55.30
75719;DHT22;64340;48.534;-3.036;2023-02-28T07:28:47;12.80;55.00
75719;DHT22;64340;48.534;-3.036;2023-02-28T07:31:13;12.70;55.10
75719;DHT22;64340;48.534;-3.036;2023-02-28T07:33:40;12.70;54.80
75719;DHT22;64340;48.534;-3.036;2023-02-28T07:36:09;12.80;54.80
75719;DHT22;64340;48.534;-3.036;2023-02-28T07:38:42;12.70;54.80
75719;DHT22;64340;48.534;-3.036;2023-02-28T07:41:08;12.70;54.70
75719;DHT22;64340;48.534;-3.036;2023-02-28T07:43:35;12.70;54.60
75719;DHT22;64340;48.534;-3.036;2023-02-28T07:46:06;12.70;54.70
75719;DHT22;64340;48.534;-3.036;2023-02-28T07:48:32;12.70;54.80
75719;DHT22;64340;48.534;-3.036;2023-02-28T07:50:59;12.70;54.60
75719;DHT22;64340;48.534;-3.036;2023-02-28T07:53:25;12.70;54.70
75719;DHT22;64340;48.534;-3.036;2023-02-28T07:55:55;12.70;54.50
75719;DHT22;64340;48.534;-3.036;2023-02-28T07:58:21;12.70;54.60
75719;DHT22;64340;48.534;-3.036;2023-02-28T08:00:46;12.70;54.70
75719;DHT22;64340;48.534;-3.036;2023-02-28T08:03:13;12.70;54.80
75719;DHT22;64340;48.534;-3.036;2023-02-28T08:05:39;12.70;54.60
75719;DHT22;64340;48.534;-3.036;2023-02-28T08:08:06;12.70;54.70
75719;DHT22;64340;48.534;-3.036;2023-02-28T08:10:32;12.70;54.60
75719;DHT22;64340;48.534;-3.036;2023-02-28T08:12:58;12.70;54.30
75719;DHT22;64340;48.534;-3.036;2023-02-28T08:15:24;12.70;54.40
75719;DHT22;64340;48.534;-3.036;2023-02-28T08:17:49;12.70;54.30
75719;DHT22;64340;48.534;-3.036;2023-02-28T08:20:15;12.70;54.20
75719;DHT22;64340;48.534;-3.036;2023-02-28T08:22:41;12.70;54.10
75719;DHT22;64340;48.534;-3.036;2023-02-28T08:25:07;12.80;54.10
75719;DHT22;64340;48.534;-3.036;2023-02-28T12:15:27;12.70;53.70
75719;DHT22;64340;48.534;-3.036;2023-02-28T12:24:00;12.70;54.00
75719;DHT22;64340;48.534;-3.036;2023-02-28T12:26:44;12.70;53.50
75719;DHT22;64340;48.534;-3.036;2023-02-28T12:32:03;12.70;54.00
75719;DHT22;64340;48.534;-3.036;2023-02-28T12:34:52;12.80;54.00
75719;DHT22;64340;48.534;-3.036;2023-02-28T12:37:33;12.80;53.90
75719;DHT22;64340;48.534;-3.036;2023-02-28T12:40:03;12.80;54.00
75719;DHT22;64340;48.534;-3.036;2023-02-28T12:42:38;12.80;54.00
75719;DHT22;64340;48.534;-3.036;2023-02-28T12:47:42;12.80;53.80
75719;DHT22;64340;48.534;-3.036;2023-02-28T12:50:10;12.80;53.90
75719;DHT22;64340;48.534;-3.036;2023-02-28T12:58:33;12.90;53.70
75719;DHT22;64340;48.534;-3.036;2023-02-28T13:10:02;12.80;54.00
75719;DHT22;64340;48.534;-3.036;2023-02-28T13:12:29;12.80;54.00
75719;DHT22;64340;48.534;-3.036;2023-02-28T13:15:24;12.80;54.00
75719;DHT22;64340;48.534;-3.036;2023-02-28T13:17:53;12.70;54.00
75719;DHT22;64340;48.534;-3.036;2023-02-28T13:20:32;12.70;54.00
75719;DHT22;64340;48.534;-3.036;2023-02-28T13:22:59;12.70;54.10
75719;DHT22;64340;48.534;-3.036;2023-02-28T13:28:13;12.70;54.00
75719;DHT22;64340;48.534;-3.036;2023-02-28T13:31:03;12.70;54.00
75719;DHT22;64340;48.534;-3.036;2023-02-28T13:33:37;12.70;54.10
75719;DHT22;64340;48.534;-3.036;2023-02-28T13:36:26;12.70;54.00
75719;DHT22;64340;48.534;-3.036;2023-02-28T13:38:59;12.70;53.90
75719;DHT22;64340;48.534;-3.036;2023-02-28T13:44:17;12.70;53.80
75719;DHT22;64340;48.534;-3.036;2023-02-28T13:49:25;12.80;53.60
75719;DHT22;64340;48.534;-3.036;2023-02-28T14:03:32;12.80;53.70
75719;DHT22;64340;48.534;-3.036;2023-02-28T14:06:32;12.80;53.70
75719;DHT22;64340;48.534;-3.036;2023-02-28T14:09:45;12.80;53.70
75719;DHT22;64340;48.534;-3.036;2023-02-28T14:11:50;12.80;53.90
75719;DHT22;64340;48.534;-3.036;2023-02-28T14:17:08;12.80;54.10
75719;DHT22;64340;48.534;-3.036;2023-02-28T14:19:38;12.80;54.00
75719;DHT22;64340;48.534;-3.036;2023-02-28T14:25:40;12.80;54.00
75719;DHT22;64340;48.534;-3.036;2023-02-28T14:31:45;12.80;54.00
75719;DHT22;64340;48.534;-3.036;2023-02-28T14:37:02;12.80;54.50
75719;DHT22;64340;48.534;-3.036;2023-02-28T14:39:29;12.80;54.40
75719;DHT22;64340;48.534;-3.036;2023-02-28T14:41:58;12.70;54.40
75719;DHT22;64340;48.534;-3.036;2023-02-28T14:44:28;12.50;53.80
75719;DHT22;64340;48.534;-3.036;2023-02-28T14:52:14;12.00;54.30
75719;DHT22;64340;48.534;-3.036;2023-02-28T14:54:41;12.20;54.20
75719;DHT22;64340;48.534;-3.036;2023-02-28T15:00:03;12.50;54.00
75719;DHT22;64340;48.534;-3.036;2023-02-28T15:02:33;12.50;53.90
75719;DHT22;64340;48.534;-3.036;2023-02-28T15:05:13;12.50;54.20
75719;DHT22;64340;48.534;-3.036;2023-02-28T15:07:45;12.60;54.30
75719;DHT22;64340;48.534;-3.036;2023-02-28T15:12:53;12.70;54.70
75719;DHT22;64340;48.534;-3.036;2023-02-28T15:15:22;12.80;54.80
75719;DHT22;64340;48.534;-3.036;2023-02-28T15:17:55;12.80;54.80
75719;DHT22;64340;48.534;-3.036;2023-02-28T15:20:23;13.00;54.80
75719;DHT22;64340;48.534;-3.036;2023-02-28T15:22:51;13.00;54.80
75719;DHT22;64340;48.534;-3.036;2023-02-28T15:25:21;13.10;54.80
75719;DHT22;64340;48.534;-3.036;2023-02-28T15:27:53;13.10;54.70
75719;DHT22;64340;48.534;-3.036;2023-02-28T15:30:30;13.30;54.80
75719;DHT22;64340;48.534;-3.036;2023-02-28T15:33:29;13.30;54.80
75719;DHT22;64340;48.534;-3.036;2023-02-28T15:38:36;13.50;54.90
75719;DHT22;64340;48.534;-3.036;2023-02-28T15:41:02;13.50;54.80
75719;DHT22;64340;48.534;-3.036;2023-02-28T15:43:36;13.60;54.90
75719;DHT22;64340;48.534;-3.036;2023-02-28T15:46:06;13.70;54.90
75719;DHT22;64340;48.534;-3.036;2023-02-28T15:51:20;13.80;54.80
75719;DHT22;64340;48.534;-3.036;2023-02-28T15:54:05;13.90;54.90
75719;DHT22;64340;48.534;-3.036;2023-02-28T15:56:38;13.90;54.80
75719;DHT22;64340;48.534;-3.036;2023-02-28T15:59:16;13.90;54.90
75719;DHT22;64340;48.534;-3.036;2023-02-28T16:01:43;13.90;54.90
75719;DHT22;64340;48.534;-3.036;2023-02-28T16:09:15;14.00;54.80
75719;DHT22;64340;48.534;-3.036;2023-02-28T16:11:47;14.00;54.80
75719;DHT22;64340;48.534;-3.036;2023-02-28T16:14:17;14.00;54.80
75719;DHT22;64340;48.534;-3.036;2023-02-28T16:16:49;14.00;54.80
75719;DHT22;64340;48.534;-3.036;2023-02-28T16:19:15;14.00;54.80
75719;DHT22;64340;48.534;-3.036;2023-02-28T16:21:41;14.00;54.90
75719;DHT22;64340;48.534;-3.036;2023-02-28T16:24:07;14.00;54.80
75719;DHT22;64340;48.534;-3.036;2023-02-28T16:26:33;14.10;54.90
75719;DHT22;64340;48.534;-3.036;2023-02-28T16:29:01;14.10;54.80
75719;DHT22;64340;48.534;-3.036;2023-02-28T16:31:27;14.10;54.80
75719;DHT22;64340;48.534;-3.036;2023-02-28T16:33:54;14.10;54.80
75719;DHT22;64340;48.534;-3.036;2023-02-28T16:36:21;14.10;55.00
75719;DHT22;64340;48.534;-3.036;2023-02-28T16:38:48;14.20;55.00
75719;DHT22;64340;48.534;-3.036;2023-02-28T16:41:22;14.20;55.20
75719;DHT22;64340;48.534;-3.036;2023-02-28T16:43:51;14.20;55.20
75719;DHT22;64340;48.534;-3.036;2023-02-28T16:46:17;14.30;55.20
75719;DHT22;64340;48.534;-3.036;2023-02-28T16:48:44;14.30;55.10
75719;DHT22;64340;48.534;-3.036;2023-02-28T16:51:14;14.50;55.20
75719;DHT22;64340;48.534;-3.036;2023-02-28T16:53:41;14.50;55.10
75719;DHT22;64340;48.534;-3.036;2023-02-28T16:56:17;14.60;55.40
75719;DHT22;64340;48.534;-3.036;2023-02-28T16:58:44;14.70;55.10
75719;DHT22;64340;48.534;-3.036;2023-02-28T17:01:10;14.80;55.00
75719;DHT22;64340;48.534;-3.036;2023-02-28T17:03:36;14.80;55.10
75719;DHT22;64340;48.534;-3.036;2023-02-28T17:06:03;14.80;55.10
75719;DHT22;64340;48.534;-3.036;2023-02-28T17:08:30;14.90;55.30
75719;DHT22;64340;48.534;-3.036;2023-02-28T17:10:58;15.00;54.80
75719;DHT22;64340;48.534;-3.036;2023-02-28T17:13:24;15.00;54.70
75719;DHT22;64340;48.534;-3.036;2023-02-28T17:15:50;15.00;54.70
75719;DHT22;64340;48.534;-3.036;2023-02-28T17:18:18;15.10;54.80
75719;DHT22;64340;48.534;-3.036;2023-02-28T17:20:45;15.10;54.60
75719;DHT22;64340;48.534;-3.036;2023-02-28T17:23:11;15.00;54.50
75719;DHT22;64340;48.534;-3.036;2023-02-28T17:25:37;15.00;54.60
75719;DHT22;64340;48.534;-3.036;2023-02-28T17:28:03;15.00;54.60
75719;DHT22;64340;48.534;-3.036;2023-02-28T17:30:30;15.00;54.60
75719;DHT22;64340;48.534;-3.036;2023-02-28T17:32:58;15.00;54.60
75719;DHT22;64340;48.534;-3.036;2023-02-28T17:35:24;15.00;54.50
75719;DHT22;64340;48.534;-3.036;2023-02-28T17:37:52;15.00;54.60
75719;DHT22;64340;48.534;-3.036;2023-02-28T17:40:22;15.00;54.70
75719;DHT22;64340;48.534;-3.036;2023-02-28T17:42:48;15.10;54.50
75719;DHT22;64340;48.534;-3.036;2023-02-28T17:45:15;15.10;54.50
75719;DHT22;64340;48.534;-3.036;2023-02-28T17:47:43;15.10;54.50
75719;DHT22;64340;48.534;-3.036;2023-02-28T17:50:17;15.10;54.70
75719;DHT22;64340;48.534;-3.036;2023-02-28T17:52:43;15.10;54.80
75719;DHT22;64340;48.534;-3.036;2023-02-28T17:55:10;15.10;54.90
75719;DHT22;64340;48.534;-3.036;2023-02-28T17:57:36;15.10;54.90
75719;DHT22;64340;48.534;-3.036;2023-02-28T18:00:02;15.20;54.90
75719;DHT22;64340;48.534;-3.036;2023-02-28T18:02:32;15.10;55.00
75719;DHT22;64340;48.534;-3.036;2023-02-28T18:04:57;15.10;55.00
75719;DHT22;64340;48.534;-3.036;2023-02-28T18:07:24;15.10;55.00
75719;DHT22;64340;48.534;-3.036;2023-02-28T18:09:50;15.10;54.90
75719;DHT22;64340;48.534;-3.036;2023-02-28T18:12:16;15.10;54.90
75719;DHT22;64340;48.534;-3.036;2023-02-28T18:14:42;15.10;55.00
75719;DHT22;64340;48.534;-3.036;2023-02-28T18:17:10;15.10;55.00
75719;DHT22;64340;48.534;-3.036;2023-02-28T18:19:37;15.10;55.10
75719;DHT22;64340;48.534;-3.036;2023-02-28T18:22:03;15.10;55.00
75719;DHT22;64340;48.534;-3.036;2023-02-28T18:24:31;15.20;55.00
75719;DHT22;64340;48.534;-3.036;2023-02-28T18:26:57;15.20;54.50
75719;DHT22;64340;48.534;-3.036;2023-02-28T18:29:25;15.20;54.60
75719;DHT22;64340;48.534;-3.036;2023-02-28T18:31:52;15.30;54.50
75719;DHT22;64340;48.534;-3.036;2023-02-28T18:34:18;15.40;54.20
75719;DHT22;64340;48.534;-3.036;2023-02-28T18:36:45;15.50;54.10
75719;DHT22;64340;48.534;-3.036;2023-02-28T18:39:14;15.40;54.40
75719;DHT22;64340;48.534;-3.036;2023-02-28T18:41:40;15.50;54.50
75719;DHT22;64340;48.534;-3.036;2023-02-28T18:44:06;15.40;54.80
75719;DHT22;64340;48.534;-3.036;2023-02-28T18:46:32;15.50;54.50
75719;DHT22;64340;48.534;-3.036;2023-02-28T18:48:59;15.40;54.60
75719;DHT22;64340;48.534;-3.036;2023-02-28T18:51:27;15.50;55.00
75719;DHT22;64340;48.534;-3.036;2023-02-28T18:53:52;15.50;55.30
75719;DHT22;64340;48.534;-3.036;2023-02-28T18:56:20;15.50;56.20
75719;DHT22;64340;48.534;-3.036;2023-02-28T18:58:48;15.50;56.00
75719;DHT22;64340;48.534;-3.036;2023-02-28T19:01:32;15.50;56.10
75719;DHT22;64340;48.534;-3.036;2023-02-28T19:04:01;15.50;56.10
75719;DHT22;64340;48.534;-3.036;2023-02-28T19:06:31;15.50;55.70
75719;DHT22;64340;48.534;-3.036;2023-02-28T19:08:59;15.50;55.60
75719;DHT22;64340;48.534;-3.036;2023-02-28T19:11:25;15.50;55.70
75719;DHT22;64340;48.534;-3.036;2023-02-28T19:13:52;15.50;55.80
75719;DHT22;64340;48.534;-3.036;2023-02-28T19:16:19;15.50;55.60
75719;DHT22;64340;48.534;-3.036;2023-02-28T19:18:45;15.50;55.40
75719;DHT22;64340;48.534;-3.036;2023-02-28T19:21:13;15.50;55.30
75719;DHT22;64340;48.534;-3.036;2023-02-28T19:23:39;15.50;55.40
75719;DHT22;64340;48.534;-3.036;2023-02-28T19:26:10;15.40;55.30
75719;DHT22;64340;48.534;-3.036;2023-02-28T19:28:36;15.40;55.50
75719;DHT22;64340;48.534;-3.036;2023-02-28T19:31:03;15.40;55.50
75719;DHT22;64340;48.534;-3.036;2023-02-28T19:33:29;15.40;55.40
75719;DHT22;64340;48.534;-3.036;2023-02-28T19:35:58;15.40;55.50
75719;DHT22;64340;48.534;-3.036;2023-02-28T19:38:24;15.40;55.30
75719;DHT22;64340;48.534;-3.036;2023-02-28T19:41:01;15.40;55.20
75719;DHT22;64340;48.534;-3.036;2023-02-28T19:43:27;15.40;55.20
75719;DHT22;64340;48.534;-3.036;2023-02-28T19:45:53;15.40;55.10
75719;DHT22;64340;48.534;-3.036;2023-02-28T19:48:19;15.40;55.20
75719;DHT22;64340;48.534;-3.036;2023-02-28T19:50:49;15.40;55.20
75719;DHT22;64340;48.534;-3.036;2023-02-28T19:53:15;15.40;55.10
75719;DHT22;64340;48.534;-3.036;2023-02-28T19:55:41;15.40;54.90
75719;DHT22;64340;48.534;-3.036;2023-02-28T19:58:07;15.40;55.00
75719;DHT22;64340;48.534;-3.036;2023-02-28T20:00:33;15.30;55.00
75719;DHT22;64340;48.534;-3.036;2023-02-28T20:02:58;15.40;55.10
75719;DHT22;64340;48.534;-3.036;2023-02-28T20:05:24;15.40;55.00
75719;DHT22;64340;48.534;-3.036;2023-02-28T20:07:50;15.40;55.00
75719;DHT22;64340;48.534;-3.036;2023-02-28T20:10:16;15.40;55.00
75719;DHT22;64340;48.534;-3.036;2023-02-28T20:12:42;15.40;54.90
75719;DHT22;64340;48.534;-3.036;2023-02-28T20:15:08;15.40;54.90
75719;DHT22;64340;48.534;-3.036;2023-02-28T20:17:34;15.40;54.90
75719;DHT22;64340;48.534;-3.036;2023-02-28T20:20:00;15.40;54.70
75719;DHT22;64340;48.534;-3.036;2023-02-28T20:22:26;15.50;54.80
75719;DHT22;64340;48.534;-3.036;2023-02-28T20:24:51;15.50;54.70
75719;DHT22;64340;48.534;-3.036;2023-02-28T20:27:18;15.50;54.70
75719;DHT22;64340;48.534;-3.036;2023-02-28T20:29:44;15.50;54.80
75719;DHT22;64340;48.534;-3.036;2023-02-28T20:32:09;15.60;54.80
75719;DHT22;64340;48.534;-3.036;2023-02-28T20:34:36;15.60;54.80
75719;DHT22;64340;48.534;-3.036;2023-02-28T20:37:01;15.60;54.80
75719;DHT22;64340;48.534;-3.036;2023-02-28T20:39:27;15.60;54.70
75719;DHT22;64340;48.534;-3.036;2023-02-28T20:41:53;15.60;54.70
75719;DHT22;64340;48.534;-3.036;2023-02-28T20:44:21;15.60;54.70
75719;DHT22;64340;48.534;-3.036;2023-02-28T20:46:51;15.60;54.70
75719;DHT22;64340;48.534;-3.036;2023-02-28T20:49:18;15.60;54.60
75719;DHT22;64340;48.534;-3.036;2023-02-28T20:51:44;15.60;54.60
75719;DHT22;64340;48.534;-3.036;2023-02-28T20:54:10;15.60;54.60
75719;DHT22;64340;48.534;-3.036;2023-02-28T20:56:37;15.60;54.60